Time;durP1;ratioP1;P1;durP2;ratioP2;P2;SDS_P1;SDS_P2;PMS_P1;PMS_P2;Temp;Humidity;BMP_temperature;BMP_pressure;BME280_temperature;BME280_humidity;BME280_pressure;Samples;Min_cycle;Max_cycle;Signal;HPM_P1;HPM_P2
2024/01/28 00:02:02;;;;;;;;;;;;;;;3.31;93.21;100191.27;109565;1253;61347;-65
2024/01/28 00:04:29;;;;;;;;;;;;;;;3.19;93.65;100198.70;109577;1253;61187;-65
2024/01/28 00:06:57;;;;;;;;;;;;;;;3.11;93.80;100198.44;109551;1252;77006;-66
2024/01/28 00:09:25;;;;;;;;;;;;;;;3.07;94.05;100204.46;109552;1253;70996;-66
2024/01/28 00:11:52;;;;;;;;;;;;;;;3.01;94.53;100204.36;109617;1253;72065;-65
2024/01/28 00:14:20;;;;;;;;;;;;;;;3.03;94.61;100210.31;109606;1252;61922;-66
2024/01/28 00:16:50;;;;;;;;;;;;;;;3.09;94.18;100218.70;109591;1253;58558;-66
2024/01/28 00:19:18;;;;;;;;;;;;;;;3.02;94.46;100221.32;109490;1254;72676;-65
2024/01/28 00:21:46;;;;;;;;;;;;;;;3.04;94.65;100221.29;109331;1254;67663;-66
2024/01/28 00:24:14;;;;;;;;;;;;;;;3.07;94.30;100217.36;109329;1254;73384;-66
2024/01/28 00:26:41;;;;;;;;;;;;;;;2.99;94.78;100218.88;109318;1254;60522;-67
2024/01/28 00:29:09;;;;;;;;;;;;;;;2.99;94.97;100219.58;109351;1254;59219;-65
2024/01/28 00:31:36;;;;;;;;;;;;;;;3.01;94.66;100221.46;109341;1254;76100;-65
2024/01/28 00:34:04;;;;;;;;;;;;;;;2.97;94.83;100223.47;109293;1255;69625;-66
2024/01/28 00:36:31;;;;;;;;;;;;;;;2.96;94.90;100224.59;109195;1254;74216;-66
2024/01/28 00:38:59;;;;;;;;;;;;;;;2.83;95.68;100225.02;109076;1263;62218;-66
2024/01/28 00:41:29;;;;;;;;;;;;;;;2.93;95.30;100230.72;109348;1254;60759;-66
2024/01/28 00:43:58;;;;;;;;;;;;;;;2.90;95.39;100230.73;109378;1254;72777;-66
2024/01/28 00:46:25;;;;;;;;;;;;;;;2.81;95.65;100227.38;109307;1254;70253;-65
2024/01/28 00:48:53;;;;;;;;;;;;;;;2.88;95.49;100233.52;109439;1253;73397;-67
2024/01/28 00:51:22;;;;;;;;;;;;;;;2.89;95.23;100237.89;108802;1251;1002312;-66
2024/01/28 00:53:50;;;;;;;;;;;;;;;2.81;95.84;100236.86;109596;1251;58796;-66
2024/01/28 00:56:17;;;;;;;;;;;;;;;2.79;95.91;100240.36;109597;1251;75911;-66
2024/01/28 00:58:45;;;;;;;;;;;;;;;2.84;95.76;100240.04;109638;1251;70748;-66
2024/01/28 01:01:12;;;;;;;;;;;;;;;2.88;95.65;100242.13;109625;1251;74998;-67
2024/01/28 01:03:40;;;;;;;;;;;;;;;2.91;95.81;100246.20;109573;1254;60783;-66
2024/01/28 01:06:08;;;;;;;;;;;;;;;3.01;95.39;100250.67;109631;1251;62087;-67
2024/01/28 01:08:35;;;;;;;;;;;;;;;3.06;95.08;100254.48;109637;1251;73380;-67
2024/01/28 01:11:05;;;;;;;;;;;;;;;3.04;94.99;100260.01;109557;1253;66586;-67
2024/01/28 01:13:32;;;;;;;;;;;;;;;2.93;95.81;100259.00;109195;1252;72752;-68
2024/01/28 01:16:00;;;;;;;;;;;;;;;2.93;95.93;100263.67;109635;1254;61297;-66
2024/01/28 01:18:27;;;;;;;;;;;;;;;2.93;96.25;100263.72;109613;1252;58841;-65
2024/01/28 01:20:55;;;;;;;;;;;;;;;2.89;96.12;100263.60;109617;1253;73952;-66
2024/01/28 01:23:23;;;;;;;;;;;;;;;2.93;96.01;100266.39;109602;1253;67631;-66
2024/01/28 01:25:50;;;;;;;;;;;;;;;2.89;96.26;100268.50;109602;1252;71366;-68
2024/01/28 01:28:18;;;;;;;;;;;;;;;2.76;96.92;100268.17;109542;1253;60830;-66
2024/01/28 01:30:45;;;;;;;;;;;;;;;2.75;97.11;100269.51;109579;1253;62133;-67
2024/01/28 01:33:13;;;;;;;;;;;;;;;2.83;96.84;100271.52;109566;1254;75433;-66
2024/01/28 01:35:41;;;;;;;;;;;;;;;2.82;96.75;100270.91;109362;1254;70810;-65
2024/01/28 01:38:08;;;;;;;;;;;;;;;2.97;95.96;100276.88;109630;1253;75005;-66
2024/01/28 01:40:36;;;;;;;;;;;;;;;2.92;96.07;100278.29;109581;1253;59389;-68
2024/01/28 01:43:08;;;;;;;;;;;;;;;2.91;96.12;100280.30;109453;1252;58789;-65
2024/01/28 01:45:42;;;;;;;;;;;;;;;2.96;95.93;100284.77;109565;1252;73117;-67
2024/01/28 01:48:11;;;;;;;;;;;;;;;2.89;96.22;100291.22;109598;1253;70687;-66
2024/01/28 01:50:39;;;;;;;;;;;;;;;2.85;96.24;100284.60;109543;1253;71988;-66
2024/01/28 01:53:08;;;;;;;;;;;;;;;2.99;95.84;100286.96;109551;1253;61606;-67
2024/01/28 01:55:36;;;;;;;;;;;;;;;2.96;95.64;100290.61;109251;1252;59894;-66
2024/01/28 01:58:04;;;;;;;;;;;;;;;3.00;95.33;100287.72;109547;1253;72753;-66
2024/01/28 02:00:31;;;;;;;;;;;;;;;3.03;95.13;100289.70;109588;1252;71067;-66
2024/01/28 02:02:59;;;;;;;;;;;;;;;3.09;94.72;100294.88;109263;1252;71364;-65
2024/01/28 02:05:27;;;;;;;;;;;;;;;2.92;95.43;100294.35;109580;1252;61690;-66
2024/01/28 02:07:54;;;;;;;;;;;;;;;2.94;95.38;100296.73;109349;1257;58501;-66
2024/01/28 02:10:22;;;;;;;;;;;;;;;3.02;95.17;100302.22;109406;1254;73042;-66
2024/01/28 02:12:50;;;;;;;;;;;;;;;3.08;94.62;100304.09;109324;1254;70171;-65
2024/01/28 02:15:17;;;;;;;;;;;;;;;2.92;95.31;100304.93;109275;1256;72500;-66
2024/01/28 02:17:45;;;;;;;;;;;;;;;2.89;95.60;100308.31;109250;1257;59534;-65
2024/01/28 02:20:12;;;;;;;;;;;;;;;2.99;95.08;100310.34;109276;1256;59289;-66
2024/01/28 02:22:40;;;;;;;;;;;;;;;2.95;95.33;100317.48;109233;1256;71985;-66
2024/01/28 02:25:07;;;;;;;;;;;;;;;3.02;94.99;100317.20;109261;1256;71058;-66
2024/01/28 02:27:36;;;;;;;;;;;;;;;3.06;94.80;100317.98;109241;1257;71691;-65
2024/01/28 02:30:04;;;;;;;;;;;;;;;3.03;94.67;100321.79;109183;1256;59674;-65
2024/01/28 02:32:32;;;;;;;;;;;;;;;3.03;94.58;100319.95;109017;1256;62053;-66
2024/01/28 02:34:59;;;;;;;;;;;;;;;2.90;95.01;100325.34;109263;1256;72762;-66
2024/01/28 02:37:27;;;;;;;;;;;;;;;3.00;94.67;100330.15;109133;1257;67618;-65
2024/01/28 02:39:54;;;;;;;;;;;;;;;3.14;93.90;100334.81;109274;1256;71799;-64
2024/01/28 02:42:22;;;;;;;;;;;;;;;3.11;93.83;100338.29;109232;1257;62265;-66
2024/01/28 02:44:49;;;;;;;;;;;;;;;2.94;94.60;100340.23;109260;1254;60664;-65
2024/01/28 02:47:17;;;;;;;;;;;;;;;2.99;94.35;100347.73;109553;1251;74415;-65
2024/01/28 02:49:45;;;;;;;;;;;;;;;3.05;94.27;100358.77;109647;1251;68301;-64
2024/01/28 02:52:12;;;;;;;;;;;;;;;3.09;93.93;100358.61;109619;1251;72033;-65
2024/01/28 02:54:40;;;;;;;;;;;;;;;3.03;93.98;100362.18;109610;1251;62401;-65
2024/01/28 02:57:08;;;;;;;;;;;;;;;2.90;94.43;100365.12;109617;1251;59286;-65
2024/01/28 02:59:35;;;;;;;;;;;;;;;2.87;94.70;100365.23;109473;1251;71977;-65
2024/01/28 03:02:03;;;;;;;;;;;;;;;2.99;94.02;100373.16;109655;1251;69395;-67
2024/01/28 03:04:35;;;;;;;;;;;;;;;3.01;93.90;100376.64;109610;1251;73096;-65
2024/01/28 03:07:03;;;;;;;;;;;;;;;2.94;93.99;100378.91;109625;1251;61048;-65
2024/01/28 03:09:31;;;;;;;;;;;;;;;2.90;94.03;100374.25;109589;1253;58810;-66
2024/01/28 03:11:58;;;;;;;;;;;;;;;2.92;94.01;100377.42;108595;1254;1002148;-65
2024/01/28 03:14:26;;;;;;;;;;;;;;;2.89;94.61;100377.46;109562;1252;68680;-63
2024/01/28 03:16:54;;;;;;;;;;;;;;;2.92;94.50;100379.86;109287;1254;73364;-65
2024/01/28 03:19:21;;;;;;;;;;;;;;;2.93;94.34;100383.11;109595;1254;58971;-65
2024/01/28 03:21:49;;;;;;;;;;;;;;;2.96;94.08;100378.86;109578;1254;59979;-63
2024/01/28 03:24:17;;;;;;;;;;;;;;;2.85;94.24;100372.06;109626;1253;72381;-64
2024/01/28 03:26:45;;;;;;;;;;;;;;;2.93;94.13;100383.71;109612;1252;70714;-62
2024/01/28 03:29:12;;;;;;;;;;;;;;;3.05;93.62;100390.70;109550;1252;73272;-63
2024/01/28 03:31:40;;;;;;;;;;;;;;;2.98;93.60;100392.84;109596;1253;61036;-63
2024/01/28 03:34:08;;;;;;;;;;;;;;;3.01;93.20;100395.94;109603;1252;59162;-65
2024/01/28 03:36:36;;;;;;;;;;;;;;;2.97;93.28;100404.82;109590;1253;72506;-62
2024/01/28 03:39:04;;;;;;;;;;;;;;;2.84;93.53;100404.65;109603;1252;68777;-62
2024/01/28 03:41:32;;;;;;;;;;;;;;;2.73;94.05;100408.24;109411;1254;72658;-67
2024/01/28 03:44:00;;;;;;;;;;;;;;;2.50;95.35;100406.80;109318;1256;60759;-67
2024/01/28 03:46:27;;;;;;;;;;;;;;;2.56;95.29;100412.86;109466;1254;59666;-65
2024/01/28 03:48:55;;;;;;;;;;;;;;;2.65;94.73;100418.44;109429;1254;74863;-65
2024/01/28 03:51:22;;;;;;;;;;;;;;;2.81;93.99;100427.15;109284;1254;68401;-66
2024/01/28 03:53:50;;;;;;;;;;;;;;;2.81;94.01;100427.77;109409;1254;72972;-65
2024/01/28 03:56:17;;;;;;;;;;;;;;;2.72;94.07;100429.80;109094;1254;61265;-66
2024/01/28 03:58:45;;;;;;;;;;;;;;;2.66;94.56;100435.00;109426;1254;58134;-65
2024/01/28 04:01:12;;;;;;;;;;;;;;;2.71;94.42;100444.23;109156;1254;72771;-67
2024/01/28 04:03:40;;;;;;;;;;;;;;;2.63;94.65;100444.38;109448;1254;70506;-66
2024/01/28 04:06:08;;;;;;;;;;;;;;;2.63;94.35;100451.77;109407;1254;71007;-65
2024/01/28 04:08:35;;;;;;;;;;;;;;;2.70;94.12;100454.42;109437;1254;59393;-64
2024/01/28 04:11:05;;;;;;;;;;;;;;;2.60;94.52;100457.39;109425;1254;59548;-64
2024/01/28 04:13:33;;;;;;;;;;;;;;;2.71;93.87;100461.72;109203;1254;74568;-65
2024/01/28 04:16:00;;;;;;;;;;;;;;;2.80;93.48;100466.30;109527;1252;70023;-64
2024/01/28 04:18:28;;;;;;;;;;;;;;;2.73;93.80;100468.24;109561;1253;74990;-65
2024/01/28 04:20:55;;;;;;;;;;;;;;;2.79;93.26;100473.67;109250;1253;61111;-65
2024/01/28 04:23:23;;;;;;;;;;;;;;;2.87;92.64;100473.64;109659;1253;59844;-65
2024/01/28 04:25:50;;;;;;;;;;;;;;;2.91;92.34;100477.90;109561;1252;74119;-65
2024/01/28 04:28:18;;;;;;;;;;;;;;;2.92;92.36;100475.67;109608;1253;67219;-66
2024/01/28 04:30:46;;;;;;;;;;;;;;;2.84;92.58;100475.22;109583;1253;74560;-65
2024/01/28 04:33:14;;;;;;;;;;;;;;;2.76;92.78;100479.66;109582;1254;59671;-65
2024/01/28 04:35:41;;;;;;;;;;;;;;;2.69;92.96;100481.59;109589;1253;58862;-65
2024/01/28 04:38:09;;;;;;;;;;;;;;;2.73;92.96;100480.95;109599;1254;75214;-66
2024/01/28 04:40:36;;;;;;;;;;;;;;;2.77;92.90;100483.96;109588;1252;67075;-65
2024/01/28 04:43:04;;;;;;;;;;;;;;;2.61;92.57;100491.01;109595;1253;71559;-65
2024/01/28 04:45:31;;;;;;;;;;;;;;;2.71;92.31;100496.39;109567;1253;63276;-66
2024/01/28 04:47:59;;;;;;;;;;;;;;;2.73;92.23;100495.64;109675;1251;58948;-66
2024/01/28 04:50:26;;;;;;;;;;;;;;;2.65;91.74;100498.30;109377;1251;76850;-65
2024/01/28 04:52:54;;;;;;;;;;;;;;;2.63;92.07;100499.14;109610;1251;67652;-62
2024/01/28 04:55:21;;;;;;;;;;;;;;;2.56;92.24;100498.30;109366;1251;74290;-63
2024/01/28 04:57:49;;;;;;;;;;;;;;;2.46;92.48;100500.86;109551;1253;59638;-63
2024/01/28 05:00:17;;;;;;;;;;;;;;;2.15;93.97;100492.21;109575;1251;60924;-65
2024/01/28 05:02:45;;;;;;;;;;;;;;;2.27;93.41;100496.75;109580;1251;73535;-63
2024/01/28 05:05:12;;;;;;;;;;;;;;;2.27;93.34;100504.97;109635;1251;66769;-66
2024/01/28 05:07:39;;;;;;;;;;;;;;;2.13;93.69;100508.88;109582;1251;73684;-61
2024/01/28 05:10:09;;;;;;;;;;;;;;;1.94;94.44;100517.35;109541;1253;60045;-64
2024/01/28 05:12:36;;;;;;;;;;;;;;;2.02;93.90;100525.13;109568;1254;58889;-64
2024/01/28 05:15:06;;;;;;;;;;;;;;;1.92;94.35;100528.47;109306;1252;74533;-64
2024/01/28 05:17:35;;;;;;;;;;;;;;;2.09;93.53;100530.25;109366;1252;70785;-66
2024/01/28 05:20:02;;;;;;;;;;;;;;;2.01;93.72;100537.63;109392;1258;72715;-62
2024/01/28 05:22:30;;;;;;;;;;;;;;;2.04;93.56;100535.88;109393;1257;58885;-64
2024/01/28 05:25:00;;;;;;;;;;;;;;;1.93;94.09;100541.89;109429;1254;61146;-63
2024/01/28 05:27:31;;;;;;;;;;;;;;;1.78;94.51;100542.72;109151;1254;74888;-62
2024/01/28 05:29:58;;;;;;;;;;;;;;;1.93;94.06;100552.15;109406;1254;69522;-62
2024/01/28 05:32:26;;;;;;;;;;;;;;;1.98;93.72;100555.49;109394;1255;73303;-66
2024/01/28 05:34:54;;;;;;;;;;;;;;;1.97;93.78;100554.55;109392;1254;60574;-62
2024/01/28 05:37:22;;;;;;;;;;;;;;;1.96;93.81;100558.92;109425;1254;60263;-64
2024/01/28 05:39:50;;;;;;;;;;;;;;;1.90;93.87;100563.77;109390;1254;75057;-63
2024/01/28 05:42:17;;;;;;;;;;;;;;;1.93;93.81;100565.89;109238;1256;69169;-64
2024/01/28 05:44:45;;;;;;;;;;;;;;;1.94;93.62;100571.56;109280;1254;75412;-63
2024/01/28 05:47:12;;;;;;;;;;;;;;;1.84;93.83;100577.48;109383;1258;59039;-62
2024/01/28 05:49:40;;;;;;;;;;;;;;;1.94;93.67;100579.52;109387;1254;60643;-64
2024/01/28 05:52:08;;;;;;;;;;;;;;;2.00;93.33;100582.80;109562;1254;75964;-65
2024/01/28 05:54:41;;;;;;;;;;;;;;;1.99;93.28;100582.38;109354;1256;69028;-65
2024/01/28 05:57:09;;;;;;;;;;;;;;;2.20;92.92;100586.91;109214;1256;73098;-63
2024/01/28 05:59:37;;;;;;;;;;;;;;;2.12;92.77;100589.02;109101;1258;60154;-62
2024/01/28 06:02:05;;;;;;;;;;;;;;;2.11;92.97;100589.64;109067;1255;60308;-61
2024/01/28 06:04:32;;;;;;;;;;;;;;;2.10;93.34;100596.52;109286;1257;74938;-65
2024/01/28 06:07:00;;;;;;;;;;;;;;;2.11;93.04;100598.60;109282;1257;67150;-64
2024/01/28 06:09:27;;;;;;;;;;;;;;;2.15;92.92;100607.39;109295;1254;74004;-63
2024/01/28 06:11:55;;;;;;;;;;;;;;;2.22;92.48;100610.43;109422;1257;61234;-66
2024/01/28 06:14:24;;;;;;;;;;;;;;;2.41;92.14;100614.73;109282;1254;59974;-67
2024/01/28 06:16:51;;;;;;;;;;;;;;;2.38;91.60;100616.39;109398;1254;76752;-65
2024/01/28 06:19:19;;;;;;;;;;;;;;;2.50;90.73;100619.70;109379;1254;68021;-66
2024/01/28 06:21:47;;;;;;;;;;;;;;;2.39;90.62;100617.04;109367;1254;71327;-65
2024/01/28 06:24:14;;;;;;;;;;;;;;;2.47;90.44;100617.05;109376;1257;59579;-65
2024/01/28 06:26:42;;;;;;;;;;;;;;;2.52;90.12;100621.96;109624;1251;60090;-66
2024/01/28 06:29:09;;;;;;;;;;;;;;;2.48;89.57;100626.98;109477;1251;76815;-66
2024/01/28 06:31:37;;;;;;;;;;;;;;;2.40;90.13;100631.97;109633;1251;67526;-67
2024/01/28 06:34:04;;;;;;;;;;;;;;;2.43;89.92;100633.58;109358;1251;70724;-66
2024/01/28 06:36:32;;;;;;;;;;;;;;;2.58;89.42;100641.01;109544;1253;59973;-64
2024/01/28 06:39:00;;;;;;;;;;;;;;;2.53;89.45;100641.23;109484;1254;59017;-65
2024/01/28 06:41:28;;;;;;;;;;;;;;;2.31;89.66;100637.88;109499;1254;75644;-64
2024/01/28 06:43:55;;;;;;;;;;;;;;;2.26;90.61;100643.80;108642;1254;1002234;-63
2024/01/28 06:46:23;;;;;;;;;;;;;;;2.21;90.34;100646.50;109432;1253;71540;-64
2024/01/28 06:48:50;;;;;;;;;;;;;;;2.44;89.89;100655.89;109282;1256;60127;-61
2024/01/28 06:51:18;;;;;;;;;;;;;;;2.59;89.88;100659.80;109326;1254;61104;-66
2024/01/28 06:53:46;;;;;;;;;;;;;;;2.41;89.45;100668.00;109299;1259;73821;-67
2024/01/28 06:56:14;;;;;;;;;;;;;;;2.25;89.94;100671.48;109326;1259;69434;-65
2024/01/28 06:58:43;;;;;;;;;;;;;;;2.31;90.11;100679.11;109288;1254;73462;-64
2024/01/28 07:01:11;;;;;;;;;;;;;;;2.26;89.89;100678.50;109246;1254;58932;-66
2024/01/28 07:03:39;;;;;;;;;;;;;;;2.37;89.83;100681.71;109244;1254;59037;-65
2024/01/28 07:06:06;;;;;;;;;;;;;;;2.44;89.51;100684.32;109297;1255;74770;-64
2024/01/28 07:08:34;;;;;;;;;;;;;;;2.66;89.37;100691.73;109517;1254;70461;-64
2024/01/28 07:11:04;;;;;;;;;;;;;;;2.75;88.87;100692.52;109566;1253;74011;-63
2024/01/28 07:13:31;;;;;;;;;;;;;;;2.85;88.76;100696.45;109167;1253;59987;-67
2024/01/28 07:15:59;;;;;;;;;;;;;;;2.87;88.00;100695.69;109600;1254;59046;-63
2024/01/28 07:18:26;;;;;;;;;;;;;;;2.52;88.66;100693.95;109583;1254;76659;-66
2024/01/28 07:20:54;;;;;;;;;;;;;;;2.59;88.61;100704.12;109623;1253;66713;-66
2024/01/28 07:23:21;;;;;;;;;;;;;;;2.70;88.38;100703.48;109591;1254;74264;-65
2024/01/28 07:25:49;;;;;;;;;;;;;;;2.57;88.52;100708.09;109573;1254;59685;-64
2024/01/28 07:28:17;;;;;;;;;;;;;;;2.69;88.32;100713.68;109596;1252;58937;-65
2024/01/28 07:30:44;;;;;;;;;;;;;;;2.67;88.38;100717.74;109600;1254;76264;-65
2024/01/28 07:33:13;;;;;;;;;;;;;;;2.66;88.21;100715.63;109621;1253;70387;-65
2024/01/28 07:35:40;;;;;;;;;;;;;;;2.77;88.02;100718.62;109606;1256;72627;-65
2024/01/28 07:38:08;;;;;;;;;;;;;;;2.72;87.66;100717.25;109621;1253;58940;-66
2024/01/28 07:40:37;;;;;;;;;;;;;;;2.83;87.49;100726.02;109271;1254;62138;-64
2024/01/28 07:43:04;;;;;;;;;;;;;;;2.85;87.29;100724.77;109329;1255;76133;-65
2024/01/28 07:45:34;;;;;;;;;;;;;;;2.98;87.53;100729.86;109573;1253;68844;-66
2024/01/28 07:48:01;;;;;;;;;;;;;;;3.13;87.04;100739.05;109627;1253;72595;-63
2024/01/28 07:50:29;;;;;;;;;;;;;;;3.11;86.00;100739.23;109573;1251;62989;-66
2024/01/28 07:52:56;;;;;;;;;;;;;;;3.09;85.55;100743.88;109458;1251;59858;-65
2024/01/28 07:55:24;;;;;;;;;;;;;;;3.21;85.43;100749.65;109658;1251;74626;-66
2024/01/28 07:57:53;;;;;;;;;;;;;;;3.23;85.36;100752.42;109633;1251;70546;-65
2024/01/28 08:00:20;;;;;;;;;;;;;;;3.21;84.99;100752.27;109619;1251;73690;-63
2024/01/28 08:02:48;;;;;;;;;;;;;;;3.30;85.36;100750.88;109345;1254;61007;-63
2024/01/28 08:05:16;;;;;;;;;;;;;;;3.29;84.68;100753.86;109242;1254;62286;-65
2024/01/28 08:07:43;;;;;;;;;;;;;;;3.54;83.97;100760.93;109300;1257;73479;-65
2024/01/28 08:10:11;;;;;;;;;;;;;;;3.71;83.97;100764.02;109301;1254;69066;-63
2024/01/28 08:12:39;;;;;;;;;;;;;;;3.72;82.65;100767.15;109342;1254;72514;-66
2024/01/28 08:15:07;;;;;;;;;;;;;;;3.64;82.82;100768.05;109189;1256;62920;-64
2024/01/28 08:17:34;;;;;;;;;;;;;;;3.72;83.34;100773.98;109322;1254;59818;-65
2024/01/28 08:20:03;;;;;;;;;;;;;;;3.66;83.78;100774.33;109268;1254;74098;-66
2024/01/28 08:22:31;;;;;;;;;;;;;;;3.43;84.14;100777.55;109349;1254;68964;-63
2024/01/28 08:24:58;;;;;;;;;;;;;;;3.33;84.34;100776.03;109045;1255;71789;-62
2024/01/28 08:27:26;;;;;;;;;;;;;;;3.17;85.00;100782.71;109249;1254;61764;-65
2024/01/28 08:29:53;;;;;;;;;;;;;;;3.24;84.81;100784.88;109062;1257;60254;-63
2024/01/28 08:32:21;;;;;;;;;;;;;;;3.31;85.41;100789.71;109088;1257;74867;-63
2024/01/28 08:34:51;;;;;;;;;;;;;;;3.41;85.20;100790.70;109312;1255;66532;-65
2024/01/28 08:37:21;;;;;;;;;;;;;;;3.47;84.90;100799.89;109277;1254;74422;-64
2024/01/28 08:39:49;;;;;;;;;;;;;;;3.34;83.86;100804.03;109264;1254;62920;-66
2024/01/28 08:42:18;;;;;;;;;;;;;;;3.29;84.23;100811.92;109275;1254;60071;-64
2024/01/28 08:44:46;;;;;;;;;;;;;;;3.28;84.43;100813.22;109360;1254;73508;-62
2024/01/28 08:47:14;;;;;;;;;;;;;;;3.33;84.25;100811.80;109436;1254;69868;-61
2024/01/28 08:49:41;;;;;;;;;;;;;;;3.48;85.34;100815.05;109378;1254;71697;-63
2024/01/28 08:52:11;;;;;;;;;;;;;;;3.64;85.34;100810.73;109413;1254;63170;-63
2024/01/28 08:54:38;;;;;;;;;;;;;;;3.75;84.31;100811.73;109309;1254;60687;-64
2024/01/28 08:57:06;;;;;;;;;;;;;;;3.75;83.46;100811.20;109473;1254;74671;-62
2024/01/28 08:59:34;;;;;;;;;;;;;;;3.82;83.36;100817.30;109414;1254;69894;-62
2024/01/28 09:02:01;;;;;;;;;;;;;;;3.92;83.26;100815.78;109557;1251;73248;-62
2024/01/28 09:04:33;;;;;;;;;;;;;;;3.88;82.27;100818.33;109570;1254;60373;-67
2024/01/28 09:07:00;;;;;;;;;;;;;;;3.82;82.45;100817.42;109512;1251;61350;-65
2024/01/28 09:09:28;;;;;;;;;;;;;;;3.92;83.16;100817.02;109591;1253;74596;-65
2024/01/28 09:11:56;;;;;;;;;;;;;;;3.99;82.99;100815.09;109492;1254;70138;-65
2024/01/28 09:14:26;;;;;;;;;;;;;;;3.96;81.70;100814.22;109442;1254;71403;-63
2024/01/28 09:16:54;;;;;;;;;;;;;;;4.06;82.15;100813.72;109438;1254;61120;-64
2024/01/28 09:19:21;;;;;;;;;;;;;;;4.04;80.79;100813.16;109462;1254;59714;-63
2024/01/28 09:21:49;;;;;;;;;;;;;;;4.03;80.36;100815.73;109496;1254;76983;-63
2024/01/28 09:24:17;;;;;;;;;;;;;;;3.96;80.34;100823.78;109504;1254;70792;-65
2024/01/28 09:26:46;;;;;;;;;;;;;;;3.77;80.79;100823.50;109461;1254;72290;-64
2024/01/28 09:29:15;;;;;;;;;;;;;;;3.62;81.80;100825.61;109448;1254;60912;-66
2024/01/28 09:31:45;;;;;;;;;;;;;;;3.39;82.63;100829.70;109435;1253;60902;-67
2024/01/28 09:34:13;;;;;;;;;;;;;;;3.59;82.82;100833.26;109164;1257;73425;-62
2024/01/28 09:36:41;;;;;;;;;;;;;;;3.68;82.43;100835.59;108957;1257;70760;-67
2024/01/28 09:39:10;;;;;;;;;;;;;;;3.65;81.96;100833.39;108920;1257;74256;-69
2024/01/28 09:41:58;;;;;;;;;;;;;;;3.61;81.54;100837.63;109178;1255;60998;-64
2024/01/28 09:44:26;;;;;;;;;;;;;;;3.69;82.35;100840.73;109180;1255;59411;-63
2024/01/28 09:46:53;;;;;;;;;;;;;;;3.75;82.51;100846.05;109172;1256;73836;-65
2024/01/28 09:49:21;;;;;;;;;;;;;;;3.59;81.98;100846.91;109083;1256;69024;-65
2024/01/28 09:51:49;;;;;;;;;;;;;;;3.50;82.26;100850.38;109069;1257;73783;-65
2024/01/28 09:54:17;;;;;;;;;;;;;;;3.71;82.08;100851.70;109160;1257;59914;-65
2024/01/28 09:56:45;;;;;;;;;;;;;;;3.57;81.23;100855.04;109181;1256;58898;-65
2024/01/28 09:59:12;;;;;;;;;;;;;;;3.51;81.06;100856.02;109119;1256;75184;-63
2024/01/28 10:01:42;;;;;;;;;;;;;;;3.51;81.17;100860.19;109231;1257;69516;-61
2024/01/28 10:04:15;;;;;;;;;;;;;;;3.66;81.00;100862.56;109155;1256;72017;-62
2024/01/28 10:06:47;;;;;;;;;;;;;;;3.68;81.34;100865.75;109585;1253;62243;-64
2024/01/28 10:09:14;;;;;;;;;;;;;;;3.82;81.80;100866.86;109549;1253;59979;-63
2024/01/28 10:11:42;;;;;;;;;;;;;;;3.71;81.24;100868.63;109645;1253;73185;-62
2024/01/28 10:14:09;;;;;;;;;;;;;;;3.65;81.44;100871.09;109206;1253;69847;-64
2024/01/28 10:16:38;;;;;;;;;;;;;;;3.66;81.65;100876.63;109626;1252;74254;-61
2024/01/28 10:19:05;;;;;;;;;;;;;;;3.62;80.12;100872.82;109618;1254;60996;-62
2024/01/28 10:21:33;;;;;;;;;;;;;;;3.68;81.44;100880.52;109580;1253;59984;-64
2024/01/28 10:24:01;;;;;;;;;;;;;;;3.49;82.26;100877.55;109615;1253;74569;-64
2024/01/28 10:26:29;;;;;;;;;;;;;;;3.62;81.39;100881.59;109620;1253;70555;-62
2024/01/28 10:28:57;;;;;;;;;;;;;;;3.71;81.51;100888.18;109608;1253;73977;-62
2024/01/28 10:31:24;;;;;;;;;;;;;;;3.77;81.07;100884.66;109585;1253;61075;-67
2024/01/28 10:33:52;;;;;;;;;;;;;;;3.81;80.65;100889.43;109640;1254;58961;-62
2024/01/28 10:36:19;;;;;;;;;;;;;;;3.58;79.34;100888.02;109644;1253;76964;-62
2024/01/28 10:38:48;;;;;;;;;;;;;;;3.70;80.34;100887.19;109655;1253;68706;-61
2024/01/28 10:41:17;;;;;;;;;;;;;;;3.60;80.01;100882.70;109622;1253;71303;-62
2024/01/28 10:44:04;;;;;;;;;;;;;;;3.52;80.14;100882.12;109502;1253;63139;-66
2024/01/28 10:46:38;;;;;;;;;;;;;;;3.44;80.12;100879.39;109001;1260;62154;-62
2024/01/28 10:49:06;;;;;;;;;;;;;;;3.55;80.51;100878.48;108870;1257;73846;-63
2024/01/28 10:51:35;;;;;;;;;;;;;;;3.49;79.49;100879.24;109139;1257;69136;-66
2024/01/28 10:54:07;;;;;;;;;;;;;;;3.36;80.01;100882.50;109123;1257;72996;-64
2024/01/28 10:56:38;;;;;;;;;;;;;;;3.66;81.04;100884.14;109021;1260;59761;-63
2024/01/28 10:59:05;;;;;;;;;;;;;;;3.48;79.86;100885.79;109055;1257;60875;-64
2024/01/28 11:01:33;;;;;;;;;;;;;;;3.38;79.51;100892.29;109002;1257;74662;-63
2024/01/28 11:04:02;;;;;;;;;;;;;;;3.18;79.76;100894.14;109079;1257;66675;-61
2024/01/28 11:06:29;;;;;;;;;;;;;;;3.36;80.26;100902.79;108957;1259;73789;-61
2024/01/28 11:08:58;;;;;;;;;;;;;;;3.51;80.19;100905.63;108982;1258;60640;-61
2024/01/28 11:11:25;;;;;;;;;;;;;;;3.66;80.16;100911.70;109009;1258;58957;-64
2024/01/28 11:13:52;;;;;;;;;;;;;;;3.65;78.74;100917.65;109019;1259;72820;-61
2024/01/28 11:16:20;;;;;;;;;;;;;;;3.50;78.53;100915.36;108996;1260;68265;-62
2024/01/28 11:18:59;;;;;;;;;;;;;;;3.57;79.67;100913.94;108998;1260;73335;-63
2024/01/28 11:21:27;;;;;;;;;;;;;;;3.45;78.22;100910.59;108891;1259;147178;-64
2024/01/28 11:23:55;;;;;;;;;;;;;;;3.25;78.69;100906.30;109188;1253;60800;-62
2024/01/28 11:26:23;;;;;;;;;;;;;;;3.32;79.43;100908.91;109487;1254;74876;-62
2024/01/28 11:28:52;;;;;;;;;;;;;;;3.40;79.56;100913.41;109407;1253;67311;-61
2024/01/28 11:31:23;;;;;;;;;;;;;;;3.35;78.82;100916.52;109382;1253;74051;-60
2024/01/28 11:33:52;;;;;;;;;;;;;;;3.31;78.72;100920.13;109286;1256;60734;-62
2024/01/28 11:36:29;;;;;;;;;;;;;;;3.07;79.22;100921.05;109394;1256;60286;-62
2024/01/28 11:39:01;;;;;;;;;;;;;;;3.14;79.96;100923.90;109369;1253;74895;-65
2024/01/28 11:41:29;;;;;;;;;;;;;;;3.18;79.77;100928.27;109357;1253;67762;-62
2024/01/28 11:43:57;;;;;;;;;;;;;;;3.23;79.37;100932.32;109444;1253;74593;-63
2024/01/28 11:46:25;;;;;;;;;;;;;;;3.09;79.61;100925.88;109289;1256;63122;-61
2024/01/28 11:48:52;;;;;;;;;;;;;;;3.12;79.93;100930.55;109467;1253;62108;-62
2024/01/28 11:51:20;;;;;;;;;;;;;;;3.12;80.23;100933.20;109599;1252;74695;-62
2024/01/28 11:53:47;;;;;;;;;;;;;;;3.12;80.63;100930.70;109212;1254;69098;-62
2024/01/28 11:56:16;;;;;;;;;;;;;;;3.36;80.56;100930.32;109318;1252;71398;-63
2024/01/28 11:58:43;;;;;;;;;;;;;;;3.48;80.88;100931.73;109480;1253;60624;-63
2024/01/28 12:01:11;;;;;;;;;;;;;;;3.46;79.76;100931.66;109488;1252;58885;-61
2024/01/28 12:03:39;;;;;;;;;;;;;;;3.21;79.72;100934.16;109598;1253;76850;-62
2024/01/28 12:06:06;;;;;;;;;;;;;;;3.29;80.62;100935.55;109497;1251;69071;-60
2024/01/28 12:08:38;;;;;;;;;;;;;;;3.46;81.15;100941.55;109583;1251;73169;-63
2024/01/28 12:11:06;;;;;;;;;;;;;;;3.55;80.23;100942.87;109163;1256;62511;-65
2024/01/28 12:13:33;;;;;;;;;;;;;;;3.56;79.95;100939.00;109306;1255;62085;-66
2024/01/28 12:16:01;;;;;;;;;;;;;;;3.39;79.53;100943.32;109233;1256;75463;-64
2024/01/28 12:18:32;;;;;;;;;;;;;;;3.32;79.76;100942.67;109331;1256;69660;-61
2024/01/28 12:21:00;;;;;;;;;;;;;;;3.17;80.66;100937.98;109193;1256;70867;-62
2024/01/28 12:23:31;;;;;;;;;;;;;;;3.25;80.86;100946.28;109184;1256;61396;-65
2024/01/28 12:25:59;;;;;;;;;;;;;;;3.28;81.57;100951.88;109304;1256;61087;-61
2024/01/28 12:28:26;;;;;;;;;;;;;;;3.25;81.19;100961.43;109211;1255;74223;-62
2024/01/28 12:30:54;;;;;;;;;;;;;;;3.16;81.44;100959.85;109316;1256;70260;-63
2024/01/28 12:33:22;;;;;;;;;;;;;;;3.02;82.25;100957.44;109152;1255;72567;-63
2024/01/28 12:35:49;;;;;;;;;;;;;;;3.16;82.71;100963.31;109112;1256;61899;-63
2024/01/28 12:38:17;;;;;;;;;;;;;;;3.22;82.67;100971.33;109223;1256;60221;-63
2024/01/28 12:40:45;;;;;;;;;;;;;;;3.11;81.91;100966.49;109204;1256;74106;-62